Terminal Aerodrome Forecast
Issued by NWS

Home | Current Version | Previous Version | Text Only | Print | Product List | Glossary On
Versions: 1 2 3 4 5 6 7 8 9 10 11 12 13 14 15
000
FTUS41 KPHI 240521
TAFMIV
TAF
KMIV 240521Z 2406/2506 00000KT P6SM SCT250
     FM241100 10005KT P6SM SCT250
     FM241400 11009KT P6SM BKN150
     FM242000 11015G25KT 6SM -RA OVC060
     FM242300 11013G22KT 4SM RA BR OVC023
     FM250300 10012KT 2SM RA BR OVC007=

USA.gov is the U.S. government's official web portal to all federal, state and local government web resources and services.